createdAt,value
2018-12-14T00:06:39.793Z,19.43
2018-12-14T00:10:47.819Z,18.70
2018-12-14T00:14:56.227Z,22.67
2018-12-14T00:19:00.374Z,20.67
2018-12-14T00:23:06.229Z,19.90
2018-12-14T00:27:11.100Z,21.97
2018-12-14T00:31:18.875Z,19.93
2018-12-14T00:35:25.509Z,20.27
2018-12-14T00:39:27.577Z,20.63
2018-12-14T00:43:31.541Z,24.40
2018-12-14T00:47:35.439Z,19.47
2018-12-14T00:51:40.157Z,24.93
2018-12-14T00:55:47.457Z,20.20
2018-12-14T00:59:53.069Z,19.90
2018-12-14T01:03:57.322Z,19.30
2018-12-14T01:08:01.574Z,20.57
2018-12-14T01:12:05.938Z,20.73
2018-12-14T01:16:09.742Z,19.30
2018-12-14T01:20:13.814Z,20.97
2018-12-14T01:24:16.628Z,24.97
2018-12-14T01:28:21.234Z,23.47
2018-12-14T01:32:25.277Z,21.50
2018-12-14T01:36:29.691Z,19.73
2018-12-14T01:40:35.628Z,20.37
2018-12-14T01:44:37.767Z,20.53
2018-12-14T01:48:41.597Z,18.43
2018-12-14T01:52:46.932Z,18.13
2018-12-14T01:56:54.367Z,20.17
2018-12-14T02:00:59.312Z,22.07
2018-12-14T02:05:03.816Z,19.83
2018-12-14T02:09:10.910Z,20.90
2018-12-14T02:13:15.809Z,19.73
2018-12-14T02:17:19.379Z,17.17
2018-12-14T02:21:24.721Z,19.30
2018-12-14T02:25:28.545Z,19.80
2018-12-14T02:29:30.522Z,16.80
2018-12-14T02:33:36.590Z,18.93
2018-12-14T02:37:40.666Z,18.00
2018-12-14T02:41:42.984Z,19.73
2018-12-14T02:45:46.956Z,17.60
2018-12-14T02:49:52.115Z,16.60
2018-12-14T02:53:59.928Z,16.93
2018-12-14T02:58:03.515Z,15.87
2018-12-14T03:02:06.769Z,22.13
2018-12-14T03:06:10.902Z,20.03
2018-12-14T03:10:15.641Z,17.80
2018-12-14T03:14:19.830Z,16.97
2018-12-14T03:18:21.653Z,17.77
2018-12-14T03:22:29.744Z,18.00
2018-12-14T03:26:35.026Z,19.60
2018-12-14T03:30:39.543Z,16.70
2018-12-14T03:34:43.612Z,20.50
2018-12-14T03:38:51.022Z,16.33
2018-12-14T03:42:56.422Z,18.47
2018-12-14T03:47:00.382Z,16.43
2018-12-14T03:51:04.395Z,16.93
2018-12-14T03:55:09.200Z,17.27
2018-12-14T03:59:12.304Z,17.20
2018-12-14T04:03:21.270Z,18.30
2018-12-14T04:07:25.682Z,20.00
2018-12-14T04:11:29.983Z,20.33
2018-12-14T04:15:32.278Z,21.73
2018-12-14T04:19:35.627Z,18.97
2018-12-14T04:23:40.608Z,19.87
2018-12-14T04:27:44.324Z,20.63
2018-12-14T04:31:52.136Z,22.97
2018-12-14T04:40:17.502Z,21.47
2018-12-14T04:44:20.894Z,22.17
2018-12-14T04:48:25.204Z,20.87
2018-12-14T04:52:27.564Z,22.63
2018-12-14T04:56:31.811Z,24.50
2018-12-14T05:00:36.018Z,19.50
2018-12-14T05:04:38.706Z,19.83
2018-12-14T05:08:45.397Z,23.33
2018-12-14T05:12:56.327Z,24.90
2018-12-14T05:17:03.256Z,21.50
2018-12-14T05:21:08.009Z,23.90
2018-12-14T05:25:15.030Z,20.70
2018-12-14T05:29:19.249Z,20.03
2018-12-14T05:33:24.330Z,21.80
2018-12-14T05:37:28.745Z,17.43
2018-12-14T05:41:32.222Z,18.57
2018-12-14T05:45:35.882Z,20.17
2018-12-14T05:49:38.542Z,18.90
2018-12-14T05:53:43.979Z,17.97
2018-12-14T05:57:56.448Z,21.27
2018-12-14T06:02:05.662Z,20.53
2018-12-14T06:06:12.310Z,22.07
2018-12-14T06:10:17.642Z,21.97
2018-12-14T06:14:22.219Z,20.53
2018-12-14T06:18:27.814Z,20.33
2018-12-14T06:22:32.355Z,19.83
2018-12-14T06:26:40.731Z,20.93
2018-12-14T06:30:45.244Z,22.40
2018-12-14T06:34:53.067Z,23.47
2018-12-14T06:38:57.584Z,23.00
2018-12-14T06:43:00.378Z,23.93
2018-12-14T06:47:04.497Z,23.50
2018-12-14T06:51:09.421Z,21.10
2018-12-14T06:55:14.339Z,24.53
2018-12-14T06:59:17.259Z,25.10
2018-12-14T07:03:25.824Z,25.07
2018-12-14T07:07:44.493Z,29.77
2018-12-14T07:11:52.576Z,22.70
2018-12-14T07:16:00.166Z,24.97
2018-12-14T07:20:03.999Z,23.73
2018-12-14T07:24:08.860Z,22.83
2018-12-14T07:28:13.300Z,23.30
2018-12-14T07:32:17.404Z,22.00
2018-12-14T07:36:22.354Z,23.80
2018-12-14T07:40:26.847Z,21.97
2018-12-14T07:44:35.716Z,23.17
2018-12-14T07:48:40.011Z,22.70
2018-12-14T07:52:46.518Z,22.47
2018-12-14T07:56:55.690Z,23.17
2018-12-14T08:01:00.977Z,25.03
2018-12-14T08:05:09.903Z,20.90
2018-12-14T08:09:14.170Z,22.10
2018-12-14T08:13:19.417Z,20.10
2018-12-14T08:17:24.493Z,22.63
2018-12-14T08:21:28.995Z,21.13
2018-12-14T08:25:36.715Z,24.43
2018-12-14T08:29:39.236Z,20.50
2018-12-14T08:33:45.207Z,21.27
2018-12-14T08:37:49.255Z,19.90
2018-12-14T08:41:53.432Z,18.57
2018-12-14T08:45:57.568Z,24.60
2018-12-14T08:50:02.078Z,21.00
2018-12-14T08:54:06.474Z,18.30
2018-12-14T08:58:11.003Z,23.07
2018-12-14T09:02:23.198Z,22.07
2018-12-14T09:06:27.303Z,21.30
2018-12-14T09:10:35.362Z,20.67
2018-12-14T09:14:41.253Z,23.37
2018-12-14T09:18:54.727Z,19.67
2018-12-14T09:22:59.082Z,29.10
2018-12-14T09:27:07.225Z,21.70
2018-12-14T09:31:11.366Z,18.87
2018-12-14T09:35:14.668Z,21.53
2018-12-14T09:39:17.122Z,19.10
2018-12-14T09:43:21.595Z,20.57
2018-12-14T09:47:26.365Z,20.33
2018-12-14T09:51:32.923Z,16.23
2018-12-14T09:55:37.151Z,17.40
2018-12-14T09:59:40.796Z,19.83
2018-12-14T10:03:55.082Z,18.33
2018-12-14T10:07:59.018Z,17.50
2018-12-14T10:12:02.425Z,16.07
2018-12-14T10:16:07.900Z,17.67
2018-12-14T10:20:12.164Z,20.87
2018-12-14T10:24:16.410Z,19.93
2018-12-14T10:28:24.726Z,19.40
2018-12-14T10:32:28.283Z,17.73
2018-12-14T10:36:32.293Z,17.43
2018-12-14T10:40:38.456Z,21.43
2018-12-14T10:44:48.913Z,34.87
2018-12-14T10:48:52.865Z,22.67
2018-12-14T10:53:04.711Z,21.37
2018-12-14T10:57:16.030Z,18.00
2018-12-14T11:01:21.955Z,16.30
2018-12-14T11:05:26.262Z,17.00
2018-12-14T11:09:30.926Z,17.60
2018-12-14T11:13:35.034Z,17.50
2018-12-14T11:17:37.414Z,20.57
2018-12-14T11:21:42.107Z,18.97
2018-12-14T11:25:53.892Z,18.60
2018-12-14T11:29:57.658Z,17.07
2018-12-14T11:34:02.852Z,21.93
2018-12-14T11:38:10.562Z,17.73
2018-12-14T11:42:18.134Z,17.90
2018-12-14T11:46:23.820Z,20.27
2018-12-14T11:50:28.191Z,19.00
2018-12-14T11:54:33.465Z,21.73
2018-12-14T11:58:37.712Z,17.17
2018-12-14T12:02:45.944Z,17.80
2018-12-14T12:06:53.593Z,24.07
2018-12-14T12:10:59.036Z,26.47
2018-12-14T12:15:04.317Z,22.17
2018-12-14T12:19:13.497Z,20.43
2018-12-14T12:23:16.758Z,20.10
2018-12-14T12:27:24.469Z,17.60
2018-12-14T12:31:29.716Z,20.10
2018-12-14T12:35:38.097Z,24.03
2018-12-14T12:39:41.423Z,18.63
2018-12-14T12:44:00.122Z,17.43
2018-12-14T12:48:04.872Z,17.90
2018-12-14T12:52:09.358Z,20.67
2018-12-14T12:56:14.779Z,17.50
2018-12-14T13:00:17.427Z,20.87
2018-12-14T13:04:26.138Z,19.40
2018-12-14T13:08:30.570Z,20.57
2018-12-14T13:12:36.406Z,23.23
2018-12-14T13:16:40.712Z,21.13
2018-12-14T13:20:46.317Z,26.10
2018-12-14T13:24:50.155Z,23.83
2018-12-14T13:28:55.254Z,23.40
2018-12-14T13:37:33.751Z,17.40
2018-12-14T13:41:41.667Z,20.50
2018-12-14T13:45:55.672Z,19.47
2018-12-14T13:49:59.859Z,17.43
2018-12-14T13:54:04.880Z,20.90
2018-12-14T13:58:13.798Z,16.53
2018-12-14T14:02:17.401Z,21.17
2018-12-14T14:06:27.926Z,17.37
2018-12-14T14:10:35.620Z,21.03
2018-12-14T14:14:40.846Z,18.37
2018-12-14T14:18:54.988Z,21.43
2018-12-14T14:23:02.284Z,18.03
2018-12-14T14:27:08.030Z,20.67
2018-12-14T14:31:12.815Z,19.93
2018-12-14T14:35:17.007Z,18.50
2018-12-14T14:39:25.250Z,17.93
2018-12-14T14:43:30.059Z,17.63
2018-12-14T14:47:34.218Z,16.80
2018-12-14T14:51:38.463Z,28.87
2018-12-14T14:55:47.151Z,20.20
2018-12-14T14:59:51.022Z,17.20
2018-12-14T15:03:56.093Z,20.13
2018-12-14T15:08:00.507Z,20.93
2018-12-14T15:12:10.981Z,19.33
2018-12-14T15:16:17.294Z,20.50
2018-12-14T15:20:18.936Z,18.57
2018-12-14T15:24:24.037Z,18.77
2018-12-14T15:28:35.007Z,28.03
2018-12-14T15:32:44.717Z,22.53
2018-12-14T15:36:57.047Z,20.83
2018-12-14T15:41:07.303Z,22.80
2018-12-14T15:45:13.239Z,19.37
2018-12-14T15:49:19.915Z,24.07
2018-12-14T15:53:23.226Z,22.50
2018-12-14T15:57:26.151Z,21.97
2018-12-14T16:01:34.628Z,17.07
2018-12-14T16:05:42.895Z,21.47
2018-12-14T16:09:45.806Z,19.63
2018-12-14T16:13:50.102Z,22.23
2018-12-14T16:17:55.232Z,20.67
2018-12-14T16:22:01.782Z,18.10
2018-12-14T16:26:04.012Z,19.90
2018-12-14T16:30:07.570Z,20.40
2018-12-14T16:34:11.883Z,20.73
2018-12-14T16:38:15.132Z,20.13
2018-12-14T16:42:20.254Z,19.60
2018-12-14T16:46:23.634Z,17.80
2018-12-14T16:50:26.208Z,22.20
2018-12-14T16:54:30.235Z,18.67
2018-12-14T16:58:34.380Z,19.70
2018-12-14T17:02:43.050Z,18.77
2018-12-14T17:06:47.159Z,18.80
2018-12-14T17:11:01.205Z,24.67
2018-12-14T17:15:16.087Z,22.97
2018-12-14T17:19:24.916Z,20.73
2018-12-14T17:27:54.032Z,21.30
2018-12-14T17:32:00.094Z,20.33
2018-12-14T17:36:04.340Z,24.53
2018-12-14T17:40:09.803Z,18.30
2018-12-14T17:44:14.529Z,20.70
2018-12-14T17:48:18.399Z,23.67
2018-12-14T17:52:28.020Z,22.13
2018-12-14T17:56:32.177Z,19.50
2018-12-14T18:00:36.905Z,21.47
2018-12-14T18:04:51.034Z,20.03
2018-12-14T18:08:53.910Z,22.63
2018-12-14T18:12:57.537Z,22.50
2018-12-14T18:17:02.493Z,20.33
2018-12-14T18:21:05.735Z,22.37
2018-12-14T18:25:09.847Z,25.47
2018-12-14T18:29:14.292Z,23.30
2018-12-14T18:33:18.564Z,19.40
2018-12-14T18:37:22.665Z,22.03
2018-12-14T18:41:25.938Z,32.03
2018-12-14T18:45:30.695Z,19.33
2018-12-14T18:49:35.077Z,21.13
2018-12-14T18:53:49.119Z,21.00
2018-12-14T18:57:53.234Z,18.80
2018-12-14T19:01:57.476Z,25.07
2018-12-14T19:06:02.060Z,22.23
2018-12-14T19:10:06.851Z,19.33
2018-12-14T19:14:13.094Z,21.20
2018-12-14T19:18:15.819Z,20.10
2018-12-14T19:22:20.201Z,27.80
2018-12-14T19:26:24.271Z,42.70
2018-12-14T19:30:26.897Z,23.87
2018-12-14T19:34:32.039Z,23.50
2018-12-14T19:38:36.847Z,18.60
2018-12-14T19:42:45.842Z,22.27
2018-12-14T19:46:50.121Z,22.10
2018-12-14T19:50:54.414Z,27.60
2018-12-14T19:54:58.692Z,27.63
2018-12-14T19:59:04.190Z,20.63
2018-12-14T20:03:08.206Z,16.00
2018-12-14T20:07:15.613Z,17.87
2018-12-14T20:11:19.490Z,17.03
2018-12-14T20:15:23.706Z,16.57
2018-12-14T20:19:28.026Z,17.10
2018-12-14T20:23:31.980Z,21.23
2018-12-14T20:27:37.650Z,18.93
2018-12-14T20:31:45.708Z,24.40
2018-12-14T20:35:50.785Z,17.43
2018-12-14T20:39:53.141Z,17.97
2018-12-14T20:43:57.039Z,18.03
2018-12-14T20:48:01.202Z,20.57
2018-12-14T20:52:05.139Z,16.17
2018-12-14T20:56:09.580Z,13.13
2018-12-14T21:00:12.453Z,14.83
2018-12-14T21:04:16.448Z,12.43
2018-12-14T21:08:20.296Z,11.27
2018-12-14T21:12:25.530Z,9.70
2018-12-14T21:16:29.545Z,11.80
2018-12-14T21:20:31.183Z,10.30
2018-12-14T21:24:36.071Z,14.73
2018-12-14T21:28:43.837Z,16.77
2018-12-14T21:32:48.309Z,13.07
2018-12-14T21:36:52.594Z,11.37
2018-12-14T21:40:55.349Z,14.97
2018-12-14T21:44:59.633Z,12.57
2018-12-14T21:49:04.890Z,12.83
2018-12-14T21:53:14.446Z,13.97
2018-12-14T21:57:15.775Z,9.63
2018-12-14T22:01:20.310Z,10.87
2018-12-14T22:05:24.743Z,12.87
2018-12-14T22:09:29.513Z,13.20
2018-12-14T22:13:33.451Z,10.20
2018-12-14T22:17:37.877Z,14.37
2018-12-14T22:21:42.147Z,10.73
2018-12-14T22:25:49.234Z,10.13
2018-12-14T22:29:52.302Z,8.50
2018-12-14T22:33:58.446Z,11.53
2018-12-14T22:38:02.590Z,11.90
2018-12-14T22:42:08.051Z,9.07
2018-12-14T22:46:11.743Z,10.50
2018-12-14T22:50:25.735Z,8.30
2018-12-14T22:54:36.333Z,10.03
2018-12-14T22:58:51.254Z,10.83
2018-12-14T23:02:59.587Z,10.33
2018-12-14T23:07:03.391Z,7.70
2018-12-14T23:15:39.606Z,9.93
2018-12-14T23:19:41.401Z,8.97
2018-12-14T23:23:45.871Z,8.47
2018-12-14T23:27:50.169Z,9.30
2018-12-14T23:31:54.501Z,8.87
2018-12-14T23:35:58.522Z,10.23
2018-12-14T23:40:01.082Z,8.17
2018-12-14T23:44:05.506Z,9.60
2018-12-14T23:52:40.101Z,7.23
2018-12-14T23:56:45.349Z,12.03
